Time;durP1;ratioP1;P1;durP2;ratioP2;P2;SDS_P1;SDS_P2;PMS_P1;PMS_P2;Temp;Humidity;BMP_temperature;BMP_pressure;BME280_temperature;BME280_humidity;BME280_pressure;Samples;Min_cycle;Max_cycle;Signal;HPM_P1;HPM_P2
2023/01/04 00:01:36;;;;;;;5.95;3.15;;;;;;;5.02;100.00;100175.63;4943649;29;20043;-63
2023/01/04 00:04:20;;;;;;;4.68;3.33;;;;;;;5.01;100.00;100173.09;4934937;29;20051;-63
2023/01/04 00:07:05;;;;;;;7.35;3.83;;;;;;;5.00;100.00;100171.34;4938700;29;20051;-62
2023/01/04 00:09:51;;;;;;;5.22;3.50;;;;;;;4.95;100.00;100171.47;4953842;29;20047;-62
2023/01/04 00:12:36;;;;;;;6.97;4.65;;;;;;;4.95;100.00;100168.00;4940432;29;20105;-65
2023/01/04 00:15:21;;;;;;;5.28;4.00;;;;;;;4.81;100.00;100162.22;4939017;28;20043;-63
2023/01/04 00:18:05;;;;;;;5.82;4.18;;;;;;;4.81;100.00;100167.41;4952793;29;20459;-63
2023/01/04 00:20:50;;;;;;;5.68;3.50;;;;;;;4.68;100.00;100164.25;4953414;29;20567;-61
2023/01/04 00:23:36;;;;;;;5.78;4.10;;;;;;;4.62;100.00;100161.78;4949446;29;20043;-61
2023/01/04 00:26:24;;;;;;;4.85;3.65;;;;;;;4.61;100.00;100164.41;4938321;29;20495;-63
2023/01/04 00:29:11;;;;;;;6.82;4.07;;;;;;;4.63;100.00;100163.50;4953747;29;20071;-62
2023/01/04 00:31:55;;;;;;;6.07;4.53;;;;;;;4.62;100.00;100164.38;4941813;29;20055;-63
2023/01/04 00:34:40;;;;;;;7.57;5.15;;;;;;;4.57;100.00;100163.63;4953241;29;20074;-62
2023/01/04 00:37:25;;;;;;;6.78;4.20;;;;;;;4.53;100.00;100159.41;4952510;29;20051;-62
2023/01/04 00:40:10;;;;;;;6.60;3.63;;;;;;;4.48;100.00;100169.88;4938641;29;20051;-63
2023/01/04 00:42:55;;;;;;;7.55;4.78;;;;;;;4.55;100.00;100165.41;4948308;29;20478;-63
2023/01/04 00:45:42;;;;;;;6.00;4.10;;;;;;;4.56;100.00;100164.53;4952623;29;20047;-62
2023/01/04 00:48:27;;;;;;;7.43;3.83;;;;;;;4.55;100.00;100168.00;4952846;29;20122;-62
2023/01/04 00:51:12;;;;;;;6.43;4.50;;;;;;;4.36;100.00;100178.75;4927115;29;20078;-62
2023/01/04 00:54:00;;;;;;;6.35;4.38;;;;;;;4.27;100.00;100186.72;4953114;29;20059;-63
2023/01/04 00:56:44;;;;;;;8.05;3.75;;;;;;;4.16;100.00;100190.38;4952619;29;20407;-61
2023/01/04 00:59:29;;;;;;;5.13;3.65;;;;;;;4.18;100.00;100186.03;4952796;29;20043;-62
2023/01/04 01:02:13;;;;;;;5.75;4.13;;;;;;;4.23;100.00;100182.50;4952456;29;20039;-61
2023/01/04 01:04:58;;;;;;;5.90;3.63;;;;;;;4.22;100.00;100188.56;4945469;29;20058;-61
2023/01/04 01:07:43;;;;;;;5.05;3.42;;;;;;;4.22;100.00;100186.81;4941601;29;20050;-62
2023/01/04 01:10:27;;;;;;;5.22;3.40;;;;;;;4.24;100.00;100194.56;4939345;28;20042;-61
2023/01/04 01:13:12;;;;;;;5.07;3.33;;;;;;;4.35;100.00;100189.16;4952746;29;20112;-61
2023/01/04 01:16:09;;;;;;;5.20;3.05;;;;;;;4.40;100.00;100190.81;4942777;29;20046;-62
2023/01/04 01:18:54;;;;;;;4.65;2.95;;;;;;;4.41;100.00;100191.63;4946987;29;20503;-61
2023/01/04 01:21:39;;;;;;;4.50;3.00;;;;;;;4.42;100.00;100201.16;4937821;29;20047;-61
2023/01/04 01:24:24;;;;;;;7.60;4.75;;;;;;;4.35;100.00;100207.34;4938307;29;20090;-61
2023/01/04 01:27:08;;;;;;;5.15;3.20;;;;;;;4.28;100.00;100196.22;4941829;29;20491;-62
2023/01/04 01:29:53;;;;;;;4.53;2.88;;;;;;;4.15;100.00;100204.25;4951739;29;20110;-62
2023/01/04 01:32:37;;;;;;;5.80;3.58;;;;;;;4.12;100.00;100199.13;4952211;29;20046;-61
2023/01/04 01:35:22;;;;;;;7.80;5.05;;;;;;;4.16;100.00;100192.13;4952497;29;20051;-64
2023/01/04 01:38:07;;;;;;;6.53;3.83;;;;;;;4.20;100.00;100198.97;4951917;29;20916;-64
2023/01/04 01:40:51;;;;;;;5.40;3.60;;;;;;;4.11;100.00;100188.78;4937830;29;20067;-62
2023/01/04 01:43:59;;;;;;;7.43;3.95;;;;;;;4.18;100.00;100190.34;4945999;29;20043;-62
2023/01/04 01:46:49;;;;;;;4.95;3.28;;;;;;;4.10;100.00;100187.06;4944055;29;20132;-61
2023/01/04 01:49:36;;;;;;;6.47;3.78;;;;;;;4.08;100.00;100179.28;4936622;29;20051;-62
2023/01/04 01:52:29;;;;;;;5.30;3.42;;;;;;;4.11;100.00;100188.78;4952734;29;20059;-61
2023/01/04 01:55:15;;;;;;;5.32;3.60;;;;;;;3.99;100.00;100193.31;4942530;29;20557;-62
2023/01/04 01:58:02;;;;;;;5.63;4.00;;;;;;;4.07;100.00;100194.03;4913198;29;20051;-64
2023/01/04 02:00:46;;;;;;;7.78;4.80;;;;;;;3.82;100.00;100202.25;4907220;29;20134;-62
2023/01/04 02:03:35;;;;;;;5.13;3.58;;;;;;;3.77;100.00;100192.84;4931407;29;20058;-62
2023/01/04 02:06:26;;;;;;;5.90;3.25;;;;;;;3.84;100.00;100191.84;4928971;29;20082;-62
2023/01/04 02:09:11;;;;;;;6.75;4.30;;;;;;;3.91;100.00;100192.59;4945986;29;20126;-62
2023/01/04 02:11:56;;;;;;;6.28;3.42;;;;;;;3.90;100.00;100186.53;4948389;29;20058;-62
2023/01/04 02:14:43;;;;;;;4.50;3.10;;;;;;;3.98;100.00;100177.78;4917723;29;20074;-61
2023/01/04 02:17:44;;;;;;;5.18;3.25;;;;;;;3.99;100.00;100171.69;4952251;29;20050;-61
2023/01/04 02:20:38;;;;;;;5.15;3.25;;;;;;;3.91;100.00;100174.44;4912569;29;20542;-62
2023/01/04 02:23:58;;;;;;;4.93;3.15;;;;;;;3.90;100.00;100167.56;4951149;28;20050;-62
2023/01/04 02:27:04;;;;;;;5.85;3.45;;;;;;;3.96;100.00;100167.44;4954691;29;20186;-61
2023/01/04 02:30:28;;;;;;;5.72;3.78;;;;;;;4.06;100.00;100162.94;4954038;28;20043;-62
2023/01/04 02:33:28;;;;;;;5.43;3.20;;;;;;;3.96;100.00;100162.25;4955217;29;20077;-62
2023/01/04 02:36:19;;;;;;;4.40;3.08;;;;;;;3.91;100.00;100161.47;4954907;29;20039;-63
2023/01/04 02:39:31;;;;;;;3.95;2.90;;;;;;;3.94;100.00;100170.06;4954499;29;20052;-62
2023/01/04 02:45:53;;;;;;;5.90;3.38;;;;;;;3.72;100.00;100151.41;4955119;29;20047;-61
2023/01/04 02:51:43;;;;;;;6.80;4.20;;;;;;;3.88;100.00;100166.72;4955087;29;20159;-61
2023/01/04 02:54:31;;;;;;;3.83;2.60;;;;;;;3.72;100.00;100159.19;4944965;29;20048;-61
2023/01/04 02:57:47;;;;;;;3.92;2.60;;;;;;;3.81;100.00;100158.19;4954769;29;20047;-60
2023/01/04 03:07:29;;;;;;;5.55;2.90;;;;;;;3.66;100.00;100160.19;4954604;28;20119;-61
2023/01/04 03:10:29;;;;;;;3.45;2.78;;;;;;;3.59;100.00;100165.50;4954339;29;20048;-60
2023/01/04 03:13:27;;;;;;;4.60;2.80;;;;;;;3.56;100.00;100166.38;4939801;29;20043;-61
2023/01/04 03:16:17;;;;;;;5.85;2.70;;;;;;;3.59;100.00;100165.50;4954600;29;20396;-61
2023/01/04 03:19:08;;;;;;;4.97;2.72;;;;;;;3.70;100.00;100166.16;4946637;29;20044;-62
2023/01/04 03:21:52;;;;;;;4.13;2.30;;;;;;;3.69;100.00;100148.88;4939858;29;20210;-61
2023/01/04 03:37:38;;;;;;;4.28;3.08;;;;;;;3.42;100.00;100153.69;4939337;29;20440;-61
2023/01/04 03:50:05;;;;;;;4.22;2.20;;;;;;;3.65;100.00;100135.16;4911242;29;20354;-61
2023/01/04 03:52:51;;;;;;;3.60;2.10;;;;;;;3.66;100.00;100138.56;4912474;29;20099;-62
2023/01/04 03:55:38;;;;;;;3.47;2.25;;;;;;;3.68;100.00;100139.41;4910401;29;20062;-61
2023/01/04 03:58:23;;;;;;;4.03;2.10;;;;;;;3.68;100.00;100135.09;4898602;29;20156;-61
2023/01/04 04:01:08;;;;;;;3.15;1.90;;;;;;;3.69;100.00;100138.50;4905145;29;20052;-61
2023/01/04 04:10:01;;;;;;;2.67;1.98;;;;;;;3.65;100.00;100132.56;4906119;29;20063;-63
2023/01/04 04:12:47;;;;;;;2.95;1.67;;;;;;;3.70;100.00;100122.94;4910462;29;20078;-62
2023/01/04 04:15:31;;;;;;;2.70;1.73;;;;;;;3.73;100.00;100134.13;4893477;29;20076;-61
2023/01/04 04:18:16;;;;;;;3.90;2.60;;;;;;;3.76;100.00;100126.31;4931697;29;20094;-61
2023/01/04 04:21:01;;;;;;;2.78;2.00;;;;;;;3.82;100.00;100114.09;4932995;29;20570;-63
2023/01/04 04:23:46;;;;;;;3.67;1.85;;;;;;;3.84;100.00;100126.16;4948973;29;20109;-62
2023/01/04 04:26:30;;;;;;;2.95;1.92;;;;;;;3.77;100.00;100128.88;4951749;29;20379;-64
2023/01/04 04:29:14;;;;;;;4.03;1.80;;;;;;;3.74;100.00;100125.50;4945547;29;20526;-62
2023/01/04 04:31:59;;;;;;;3.05;1.42;;;;;;;3.72;100.00;100133.28;4935759;29;20482;-62
2023/01/04 04:34:44;;;;;;;2.67;2.00;;;;;;;3.73;100.00;100123.78;4944225;29;20066;-62
2023/01/04 04:37:30;;;;;;;3.15;1.58;;;;;;;3.62;100.00;100117.06;4951533;29;20048;-62
2023/01/04 04:41:37;;;;;;;3.13;1.75;;;;;;;3.70;100.00;100115.16;4949600;29;20051;-60
2023/01/04 04:43:23;;;;;;;3.22;1.48;;;;;;;3.68;100.00;100116.06;4951132;29;20047;-61
2023/01/04 04:46:07;;;;;;;2.40;1.42;;;;;;;3.76;100.00;100121.13;4951135;28;20047;-62
2023/01/04 04:48:52;;;;;;;3.33;1.95;;;;;;;3.76;100.00;100118.53;4932949;29;20406;-61
2023/01/04 04:51:37;;;;;;;3.88;2.05;;;;;;;3.71;100.00;100118.63;4943865;29;20043;-63
2023/01/04 04:54:21;;;;;;;2.75;1.63;;;;;;;3.57;100.00;100122.31;4951554;29;20106;-61
2023/01/04 04:57:06;;;;;;;3.17;1.73;;;;;;;3.51;100.00;100122.41;4937193;29;20043;-62
2023/01/04 04:59:51;;;;;;;4.65;2.38;;;;;;;3.45;100.00;100123.41;4944216;28;20094;-63
2023/01/04 05:02:36;;;;;;;2.58;1.75;;;;;;;3.42;100.00;100123.44;4951156;28;20174;-61
2023/01/04 05:05:20;;;;;;;4.13;2.15;;;;;;;3.45;100.00;100123.41;4936384;29;20043;-63
2023/01/04 05:08:05;;;;;;;2.83;1.67;;;;;;;3.52;100.00;100113.78;4950402;29;20059;-61
2023/01/04 05:10:50;;;;;;;2.58;1.67;;;;;;;3.59;100.00;100100.69;4940933;29;20126;-62
2023/01/04 05:13:35;;;;;;;2.90;1.48;;;;;;;3.53;100.00;100107.69;4933009;29;20066;-62
2023/01/04 05:16:19;;;;;;;2.05;1.40;;;;;;;3.57;100.00;100111.09;4942170;29;20527;-61
2023/01/04 05:19:04;;;;;;;3.20;1.67;;;;;;;3.61;100.00;100107.56;4950540;28;20043;-60
2023/01/04 05:21:49;;;;;;;4.18;2.25;;;;;;;3.65;100.00;100111.81;4952520;29;20134;-61
2023/01/04 05:24:33;;;;;;;2.35;1.70;;;;;;;3.61;100.00;100101.53;4946416;29;20439;-62
2023/01/04 05:27:18;;;;;;;2.60;1.40;;;;;;;3.60;100.00;100095.50;4952498;29;20427;-62
2023/01/04 05:33:07;;;;;;;2.95;1.42;;;;;;;3.57;100.00;100096.38;4950496;29;21481;-62
2023/01/04 05:35:53;;;;;;;4.03;2.08;;;;;;;3.57;100.00;100103.31;4949918;29;20039;-63
2023/01/04 05:38:37;;;;;;;4.45;2.13;;;;;;;3.51;100.00;100093.06;4947541;29;20043;-64
2023/01/04 05:44:25;;;;;;;6.50;3.03;;;;;;;3.62;100.00;100104.09;4949425;29;20050;-60
2023/01/04 05:47:09;;;;;;;8.88;2.53;;;;;;;3.96;100.00;100104.31;4934474;29;20458;-64
2023/01/04 05:49:54;;;;;;;6.13;2.78;;;;;;;3.87;100.00;100110.56;4951196;29;20051;-64
2023/01/04 05:52:39;;;;;;;5.00;2.35;;;;;;;3.93;100.00;100106.09;4952069;29;20074;-63
2023/01/04 05:55:23;;;;;;;8.02;3.15;;;;;;;3.97;100.00;100103.44;4952081;29;20430;-64
2023/01/04 05:58:08;;;;;;;8.00;3.13;;;;;;;4.03;100.00;100105.94;4950884;28;20094;-64
2023/01/04 06:00:53;;;;;;;7.32;2.97;;;;;;;3.98;100.00;100107.75;4951046;29;20063;-63
2023/01/04 06:03:38;;;;;;;5.30;2.55;;;;;;;3.80;100.00;100099.44;4935513;29;20483;-64
2023/01/04 06:06:22;;;;;;;6.50;3.22;;;;;;;3.67;100.00;100091.06;4940193;29;20043;-64
2023/01/04 06:09:07;;;;;;;4.68;2.47;;;;;;;3.67;100.00;100091.06;4953036;29;20047;-65
2023/01/04 06:11:52;;;;;;;7.00;3.08;;;;;;;3.65;100.00;100088.50;4954352;29;20047;-64
2023/01/04 06:14:37;;;;;;;4.72;2.90;;;;;;;3.69;100.00;100097.91;4947583;29;20430;-65
2023/01/04 06:17:22;;;;;;;4.50;2.38;;;;;;;3.73;100.00;100101.31;4945236;29;20043;-64
2023/01/04 06:20:08;;;;;;;4.82;2.60;;;;;;;3.65;100.00;100100.59;4945624;29;20043;-65
2023/01/04 06:22:53;;;;;;;4.97;2.92;;;;;;;3.65;100.00;100096.25;4955400;29;20134;-64
2023/01/04 06:25:37;;;;;;;7.28;3.08;;;;;;;3.65;100.00;100092.81;4954304;28;20438;-65
2023/01/04 06:28:22;;;;;;;5.20;2.60;;;;;;;3.65;100.00;100100.59;4954597;29;20044;-63
2023/01/04 06:31:08;;;;;;;6.15;2.65;;;;;;;3.60;100.00;100094.63;4953775;29;20127;-64
2023/01/04 06:33:52;;;;;;;4.32;2.70;;;;;;;3.57;100.00;100098.97;4955264;29;20142;-66
2023/01/04 06:36:38;;;;;;;5.68;2.70;;;;;;;3.64;100.00;100097.13;4944882;29;20120;-64
2023/01/04 06:39:22;;;;;;;27.75;14.63;;;;;;;3.96;100.00;100089.63;4954185;29;20051;-64
2023/01/04 06:42:43;;;;;;;14.65;8.88;;;;;;;4.00;100.00;100082.66;4950430;29;20049;-65
2023/01/04 06:45:15;;;;;;;12.48;7.32;;;;;;;4.09;100.00;100092.81;4951779;29;20090;-64
2023/01/04 06:48:00;;;;;;;12.02;7.00;;;;;;;4.43;100.00;100086.06;4938908;29;20050;-65
2023/01/04 06:50:44;;;;;;;10.48;6.47;;;;;;;4.68;100.00;100088.13;4952199;29;20538;-63
2023/01/04 06:53:29;;;;;;;11.07;6.03;;;;;;;5.02;100.00;100087.31;4939139;29;20142;-66
2023/01/04 06:56:14;;;;;;;12.48;6.50;;;;;;;5.29;100.00;100090.09;4954239;29;20400;-66
2023/01/04 06:58:59;;;;;;;10.45;6.50;;;;;;;5.42;100.00;100094.97;4952912;29;20415;-66
2023/01/04 07:01:44;;;;;;;11.13;6.88;;;;;;;5.72;100.00;100099.41;4939291;29;20039;-66
2023/01/04 07:04:28;;;;;;;11.18;6.40;;;;;;;6.10;100.00;100092.34;4939277;29;20587;-66
2023/01/04 07:07:13;;;;;;;7.70;5.45;;;;;;;6.52;100.00;100098.91;4939585;29;20074;-67
2023/01/04 07:09:58;;;;;;;9.18;5.72;;;;;;;6.82;99.22;100097.16;4952314;28;20479;-67
2023/01/04 07:12:43;;;;;;;10.63;6.28;;;;;;;7.48;98.59;100101.09;4939960;29;20044;-66
2023/01/04 07:15:28;;;;;;;8.70;5.85;;;;;;;7.92;96.12;100103.03;4953902;29;20047;-66
2023/01/04 07:18:12;;;;;;;10.70;5.97;;;;;;;8.00;94.29;100095.78;4954075;29;20402;-67
2023/01/04 07:20:57;;;;;;;9.15;5.07;;;;;;;8.40;93.19;100094.34;4948787;29;20069;-66
2023/01/04 07:23:42;;;;;;;8.43;5.70;;;;;;;8.48;90.90;100094.91;4952000;29;20054;-66
2023/01/04 07:26:28;;;;;;;9.95;5.82;;;;;;;8.62;90.87;100100.47;4954050;29;20047;-66
2023/01/04 07:29:13;;;;;;;9.90;5.28;;;;;;;8.67;92.01;100097.66;4937494;29;20065;-66
2023/01/04 07:31:58;;;;;;;8.82;5.38;;;;;;;8.78;88.35;100102.47;4953267;29;20040;-66
2023/01/04 07:34:43;;;;;;;9.45;5.55;;;;;;;8.76;86.91;100099.09;4939104;29;20074;-65
2023/01/04 07:37:28;;;;;;;8.93;5.45;;;;;;;9.01;86.92;100105.09;4953797;29;20043;-66
2023/01/04 07:40:13;;;;;;;11.38;6.50;;;;;;;9.30;85.96;100106.47;4944586;29;20066;-66
2023/01/04 07:42:58;;;;;;;7.82;4.85;;;;;;;9.79;83.38;100096.59;4953089;29;20058;-67
2023/01/04 07:45:43;;;;;;;7.65;4.80;;;;;;;10.08;81.54;100097.06;4952456;29;20055;-66
2023/01/04 07:48:28;;;;;;;7.22;4.47;;;;;;;9.92;82.54;100097.72;4952372;29;20773;-66
2023/01/04 07:51:13;;;;;;;7.93;5.13;;;;;;;10.22;81.55;100099.91;4938519;29;20043;-67
2023/01/04 07:53:58;;;;;;;8.73;4.88;;;;;;;10.28;77.94;100088.28;4952920;29;20126;-66
2023/01/04 07:56:46;;;;;;;8.00;5.07;;;;;;;10.48;79.41;100078.66;4938163;29;20051;-65
2023/01/04 07:59:31;;;;;;;6.38;4.47;;;;;;;11.36;77.30;100087.59;4950974;29;20078;-67
2023/01/04 08:02:16;;;;;;;7.80;4.68;;;;;;;11.63;74.13;100094.97;4936162;29;20138;-65
2023/01/04 08:05:00;;;;;;;8.70;5.20;;;;;;;11.64;73.74;100092.25;4952388;29;20097;-66
2023/01/04 08:07:45;;;;;;;9.77;5.00;;;;;;;11.74;72.22;100082.13;4952172;29;20804;-66
2023/01/04 08:10:30;;;;;;;8.02;5.43;;;;;;;12.44;72.23;100083.69;4953224;29;20114;-65
2023/01/04 08:13:15;;;;;;;8.05;5.28;;;;;;;12.69;70.18;100082.31;4946405;29;20132;-66
2023/01/04 08:15:59;;;;;;;8.73;5.70;;;;;;;12.43;70.60;100076.75;4951716;29;20047;-66
2023/01/04 08:18:44;;;;;;;9.30;5.50;;;;;;;12.76;69.41;100076.69;4938093;29;20395;-65
2023/01/04 08:21:31;;;;;;;8.05;4.78;;;;;;;13.11;67.82;100065.91;4952513;28;20498;-65
2023/01/04 08:24:17;;;;;;;10.88;6.60;;;;;;;13.34;66.23;100062.84;4924933;29;20166;-64
2023/01/04 08:27:02;;;;;;;10.68;5.82;;;;;;;13.25;67.29;100067.72;4952363;29;21299;-64
2023/01/04 08:29:46;;;;;;;12.02;7.30;;;;;;;13.40;67.66;100057.22;4937901;29;20521;-65
2023/01/04 08:32:31;;;;;;;9.60;6.32;;;;;;;13.14;67.68;100056.97;4945952;29;20062;-66
2023/01/04 08:35:16;;;;;;;10.00;5.60;;;;;;;12.94;69.85;100067.75;4950266;29;20636;-66
2023/01/04 08:38:01;;;;;;;9.77;5.65;;;;;;;12.75;67.97;100067.09;4952560;29;20078;-66
2023/01/04 08:40:45;;;;;;;7.30;4.43;;;;;;;13.78;67.12;100066.41;4951542;28;20039;-66
2023/01/04 08:43:30;;;;;;;9.95;5.72;;;;;;;13.94;66.80;100073.38;4952523;29;20066;-65
2023/01/04 08:46:15;;;;;;;9.60;6.45;;;;;;;14.11;65.12;100067.91;4952912;29;20047;-66
2023/01/04 08:48:59;;;;;;;10.23;6.20;;;;;;;14.39;62.01;100052.13;4952541;29;20073;-66
2023/01/04 08:51:45;;;;;;;9.20;5.78;;;;;;;14.91;62.26;100052.31;4953016;29;20044;-66
2023/01/04 08:54:29;;;;;;;5.97;3.80;;;;;;;14.77;61.38;100063.78;4949425;29;20454;-66
2023/01/04 08:57:17;;;;;;;5.03;3.13;;;;;;;15.61;64.36;100065.25;4952731;29;20035;-67
2023/01/04 09:00:03;;;;;;;8.75;5.63;;;;;;;16.06;57.43;100061.34;4946624;29;20043;-66
2023/01/04 09:02:48;;;;;;;5.82;3.53;;;;;;;16.23;60.23;100060.13;4952585;29;20039;-65
2023/01/04 09:05:33;;;;;;;4.93;3.03;;;;;;;17.28;59.69;100058.69;4952176;29;20435;-66
2023/01/04 09:08:17;;;;;;;9.13;5.80;;;;;;;16.69;54.17;100050.63;4938276;29;20411;-66
2023/01/04 09:11:05;;;;;;;6.70;4.10;;;;;;;16.11;57.63;100057.41;4942373;29;20039;-64
2023/01/04 09:13:55;;;;;;;9.95;5.78;;;;;;;16.99;58.46;100057.22;4923902;29;20462;-67
2023/01/04 09:16:39;;;;;;;7.20;5.10;;;;;;;17.59;54.42;100053.63;4944522;29;20403;-65
2023/01/04 09:19:28;;;;;;;7.25;5.05;;;;;;;17.93;51.75;100038.69;4952383;29;20558;-66
2023/01/04 09:22:14;;;;;;;9.15;5.80;;;;;;;16.57;53.74;100051.53;4919829;29;20047;-66
2023/01/04 09:24:58;;;;;;;6.38;3.65;;;;;;;16.95;56.90;100045.19;4952198;29;20384;-67
2023/01/04 09:27:43;;;;;;;7.05;3.72;;;;;;;17.63;53.39;100038.34;4952278;29;20089;-66
2023/01/04 09:30:30;;;;;;;5.40;3.65;;;;;;;17.85;52.75;100036.66;4952682;29;20046;-67
2023/01/04 09:33:15;;;;;;;6.00;3.15;;;;;;;17.59;53.61;100026.31;4940660;29;20479;-66
2023/01/04 09:36:03;;;;;;;6.47;3.97;;;;;;;17.11;53.07;100028.19;4956020;29;20051;-67
2023/01/04 09:38:48;;;;;;;6.53;4.28;;;;;;;17.67;54.78;100023.06;4956252;29;20122;-66
2023/01/04 09:41:41;;;;;;;5.80;3.88;;;;;;;17.57;52.36;100017.63;4955734;29;20446;-66
2023/01/04 09:44:42;;;;;;;4.93;3.35;;;;;;;17.89;53.88;100008.13;4942757;29;20039;-67
2023/01/04 09:47:37;;;;;;;6.13;2.45;;;;;;;17.90;52.57;100007.16;4955910;29;20057;-67
2023/01/04 09:50:39;;;;;;;6.10;4.00;;;;;;;18.44;55.36;100002.81;4941135;29;20051;-67
2023/01/04 09:53:33;;;;;;;4.88;3.72;;;;;;;18.51;51.09;100000.50;4955553;29;20146;-67
2023/01/04 09:56:30;;;;;;;6.05;3.15;;;;;;;18.76;52.32;99989.63;4946674;28;20055;-66
2023/01/04 09:59:16;;;;;;;4.68;2.65;;;;;;;18.65;50.57;99986.09;4944522;29;20479;-66
2023/01/04 10:02:15;;;;;;;5.20;3.30;;;;;;;18.26;51.02;99977.81;4955873;29;20071;-67
2023/01/04 10:05:02;;;;;;;2.35;1.52;;;;;;;19.06;49.19;99980.06;4948177;28;20058;-66
2023/01/04 10:07:47;;;;;;;5.10;3.65;;;;;;;18.37;50.07;99969.81;4941282;29;20057;-59
2023/01/04 10:10:50;;;;;;;6.65;4.20;;;;;;;20.13;56.70;99963.81;4939717;29;20051;-59
2023/01/04 10:13:42;;;;;;;6.47;4.38;;;;;;;19.48;44.78;99959.72;4941875;29;20047;-65
2023/01/04 10:17:08;;;;;;;6.50;4.10;;;;;;;17.39;49.43;99957.19;4955371;29;20538;-66
2023/01/04 10:20:02;;;;;;;8.35;4.70;;;;;;;16.94;50.67;99963.28;4949883;29;20150;-65
2023/01/04 10:23:15;;;;;;;6.95;4.53;;;;;;;16.93;50.27;99956.28;4954390;29;20070;-66
2023/01/04 10:26:29;;;;;;;6.78;4.30;;;;;;;16.44;51.74;99954.59;4953915;29;20506;-65
2023/01/04 10:29:52;;;;;;;6.30;4.65;;;;;;;15.51;53.36;99938.31;4954192;29;20142;-65
2023/01/04 10:32:42;;;;;;;7.80;4.68;;;;;;;15.47;54.27;99931.56;4881127;29;20163;-65
2023/01/04 10:35:27;;;;;;;10.25;5.18;;;;;;;15.32;54.23;99941.41;4895566;29;20108;-65
2023/01/04 10:38:19;;;;;;;6.03;4.15;;;;;;;15.34;54.71;99937.69;4882479;29;20053;-66
2023/01/04 10:41:14;;;;;;;7.30;4.10;;;;;;;15.76;63.83;99921.56;4894892;29;20131;-66
2023/01/04 10:44:16;;;;;;;7.88;5.20;;;;;;;16.04;55.73;99917.88;4880739;29;20067;-66
2023/01/04 10:47:26;;;;;;;8.48;4.18;;;;;;;15.98;57.27;99917.38;4894025;29;20445;-65
2023/01/04 10:50:18;;;;;;;7.28;4.85;;;;;;;16.09;52.76;99910.47;4894961;29;20048;-66
2023/01/04 10:53:09;;;;;;;8.07;4.25;;;;;;;15.62;56.92;99900.56;4894704;29;20049;-66
2023/01/04 10:56:03;;;;;;;9.50;4.72;;;;;;;15.58;54.68;99899.09;4894855;29;20453;-65
2023/01/04 10:59:18;;;;;;;7.82;5.00;;;;;;;15.74;59.56;99894.41;4892074;29;20506;-65
2023/01/04 11:02:20;;;;;;;7.63;5.18;;;;;;;16.40;56.84;99896.75;4879255;29;20127;-65
2023/01/04 11:05:15;;;;;;;11.00;7.20;;;;;;;15.87;55.06;99896.16;4895222;29;20059;-61
2023/01/04 11:08:09;;;;;;;8.63;5.60;;;;;;;16.53;56.78;99886.09;4903669;29;20108;-61
2023/01/04 11:11:03;;;;;;;7.60;4.93;;;;;;;16.27;59.34;99880.97;4924960;29;20474;-62
2023/01/04 11:13:48;;;;;;;6.13;4.25;;;;;;;17.91;56.65;99879.78;4953506;29;20427;-64
2023/01/04 11:16:33;;;;;;;7.47;4.30;;;;;;;16.73;54.11;99872.19;4939313;29;20054;-62
2023/01/04 11:19:18;;;;;;;7.78;4.03;;;;;;;17.63;55.93;99866.13;4946133;29;20062;-62
2023/01/04 11:22:29;;;;;;;5.85;4.20;;;;;;;18.34;49.57;99863.97;4954045;29;20051;-63
2023/01/04 11:25:18;;;;;;;5.53;3.67;;;;;;;17.74;50.28;99846.72;4952619;29;20063;-61
2023/01/04 11:28:18;;;;;;;5.45;3.50;;;;;;;17.54;51.52;99854.50;4950249;29;20150;-61
2023/01/04 11:31:06;;;;;;;6.60;2.90;;;;;;;18.43;58.78;99849.06;4937841;29;20070;-63
2023/01/04 11:33:58;;;;;;;9.00;4.00;;;;;;;19.01;49.07;99844.22;4954252;29;20167;-62
2023/01/04 11:36:45;;;;;;;4.70;3.15;;;;;;;19.17;47.92;99839.28;4928485;29;20109;-63
2023/01/04 11:39:30;;;;;;;6.80;3.97;;;;;;;19.02;54.07;99835.25;4937593;29;20526;-63
2023/01/04 11:42:24;;;;;;;6.47;4.07;;;;;;;17.73;51.30;99847.69;4950478;29;20042;-60
2023/01/04 11:45:19;;;;;;;6.95;3.88;;;;;;;18.16;60.28;99840.69;4950960;29;20047;-64
2023/01/04 11:48:05;;;;;;;8.25;4.72;;;;;;;18.82;63.98;99832.53;4951999;29;20050;-62
2023/01/04 11:50:54;;;;;;;7.38;4.45;;;;;;;18.87;50.84;99818.88;4953440;29;20578;-63
2023/01/04 11:53:39;;;;;;;8.82;4.38;;;;;;;18.80;63.93;99830.00;4953067;29;20105;-62
2023/01/04 11:56:25;;;;;;;7.90;3.80;;;;;;;19.41;62.22;99815.97;4951978;28;20043;-63
2023/01/04 11:59:13;;;;;;;6.90;4.80;;;;;;;17.11;55.59;99814.59;4953051;29;20092;-64
2023/01/04 12:02:19;;;;;;;7.53;4.32;;;;;;;18.71;61.59;99798.97;4935870;29;20561;-63
2023/01/04 12:05:19;;;;;;;5.35;3.47;;;;;;;18.98;61.68;99796.69;4946590;29;20050;-64
2023/01/04 12:08:03;;;;;;;4.93;3.70;;;;;;;19.44;66.47;99791.78;4936031;29;20054;-62
2023/01/04 12:10:48;;;;;;;6.22;5.00;;;;;;;18.49;49.88;99789.38;4939807;29;20051;-59
2023/01/04 12:13:33;;;;;;;7.78;5.45;;;;;;;17.09;51.20;99779.47;4941603;29;20043;-59
2023/01/04 12:16:42;;;;;;;7.35;5.15;;;;;;;17.05;51.50;99788.59;4948479;29;20051;-59
2023/01/04 12:19:27;;;;;;;10.40;6.82;;;;;;;17.00;50.24;99793.41;4948788;29;20050;-59
2023/01/04 12:22:30;;;;;;;9.98;6.30;;;;;;;16.94;54.80;99783.31;4950652;29;20052;-59
2023/01/04 12:25:23;;;;;;;11.55;6.80;;;;;;;16.59;53.04;99762.16;4949302;28;20106;-59
2023/01/04 12:28:53;;;;;;;10.63;6.60;;;;;;;17.34;50.23;99764.25;4950701;29;20434;-60
2023/01/04 12:31:37;;;;;;;11.68;7.32;;;;;;;16.11;52.69;99763.16;4891405;29;20040;-60
2023/01/04 12:34:22;;;;;;;10.98;7.28;;;;;;;16.21;52.74;99756.22;4892339;29;20499;-61
2023/01/04 12:37:07;;;;;;;13.02;7.95;;;;;;;15.36;54.09;99758.91;4877553;29;20458;-61
2023/01/04 12:39:52;;;;;;;11.82;8.07;;;;;;;14.98;55.40;99751.97;4891063;29;20067;-62
2023/01/04 12:42:36;;;;;;;13.73;8.55;;;;;;;14.11;58.94;99737.69;4892329;29;20124;-61
2023/01/04 12:45:22;;;;;;;17.63;8.98;;;;;;;13.54;60.74;99749.28;4877507;29;20124;-63
2023/01/04 12:51:31;;;;;;;12.80;8.63;;;;;;;14.11;59.91;99733.28;4888411;29;20402;-59
2023/01/04 12:54:30;;;;;;;11.32;7.55;;;;;;;14.56;59.24;99724.06;4890190;29;20061;-62
2023/01/04 12:57:15;;;;;;;14.95;8.85;;;;;;;13.57;61.16;99715.78;4888723;29;20053;-60
2023/01/04 13:00:04;;;;;;;10.80;7.32;;;;;;;13.74;63.06;99710.25;4875557;29;20170;-61
2023/01/04 13:03:14;;;;;;;12.18;7.95;;;;;;;14.17;61.59;99710.91;4938726;28;20039;-59
2023/01/04 13:06:04;;;;;;;13.95;9.35;;;;;;;13.48;62.19;99702.25;4927154;29;20101;-60
2023/01/04 13:08:51;;;;;;;13.57;8.65;;;;;;;14.19;61.79;99701.13;4946977;29;20055;-58
2023/01/04 13:11:54;;;;;;;14.30;9.50;;;;;;;13.80;60.32;99698.47;4946667;28;20051;-59
2023/01/04 13:14:53;;;;;;;19.30;11.38;;;;;;;13.69;61.84;99691.31;4930342;28;20047;-60
2023/01/04 13:17:39;;;;;;;19.30;11.02;;;;;;;13.86;61.33;99689.28;4949688;29;20055;-60
2023/01/04 13:20:27;;;;;;;18.60;11.55;;;;;;;13.74;61.64;99691.81;4949247;28;20051;-60
2023/01/04 13:23:12;;;;;;;18.45;10.95;;;;;;;14.22;61.44;99692.16;4947732;28;20091;-62
2023/01/04 13:26:34;;;;;;;18.63;11.55;;;;;;;13.39;63.52;99685.31;4948222;28;20055;-62
2023/01/04 13:29:29;;;;;;;17.15;10.85;;;;;;;13.81;63.16;99688.78;4945866;28;20066;-62
2023/01/04 13:32:27;;;;;;;18.83;10.68;;;;;;;12.69;67.29;99681.84;4942431;28;20060;-60
2023/01/04 13:35:13;;;;;;;21.17;12.07;;;;;;;13.13;65.64;99677.31;4946101;28;20512;-61
2023/01/04 13:37:59;;;;;;;22.42;11.52;;;;;;;12.36;68.41;99673.34;4948112;28;20043;-63
2023/01/04 13:40:45;;;;;;;24.75;12.93;;;;;;;12.81;66.95;99675.81;4949061;28;20054;-63
2023/01/04 13:43:51;;;;;;;23.17;13.18;;;;;;;12.15;69.67;99683.38;4949859;28;20076;-64
2023/01/04 13:46:41;;;;;;;24.85;13.30;;;;;;;12.62;68.43;99673.50;4947522;28;20054;-63
2023/01/04 13:49:26;;;;;;;21.58;13.15;;;;;;;12.50;67.69;99675.09;4942497;28;20129;-62
2023/01/04 13:52:26;;;;;;;22.50;13.43;;;;;;;12.02;70.03;99662.22;4949483;29;20074;-63
2023/01/04 13:55:22;;;;;;;21.48;13.23;;;;;;;12.01;71.54;99660.56;4938012;29;20062;-63
2023/01/04 13:58:17;;;;;;;22.85;14.95;;;;;;;12.10;70.24;99662.66;4951986;29;20066;-62
2023/01/04 14:01:42;;;;;;;20.85;12.25;;;;;;;12.65;82.41;99646.16;4940982;29;20059;-66